Accueil
METAR-TAF:

METAR-TAF

Aéroports :

Le Touquet, France

Aéroport du Touquet-Côte d'Opale

latitude: 50-30-53N, longitude: 001-37-39E, altitude: 6 m

Observation

Le bulletin a été fait il y a 34 minutes, à 23:30 UTC
Vent 10 kt de est
Température 20°C
Humidité 68%
Pression 1012 hPa
Visibilité 10 km ou plus

METAR: LFAT 282330Z AUTO 10010KT 9999 ///CB 20/14 Q1012

Heure: 02:04 (00:04 UTC)

Prévision

Le bulletin a été fait il y a 10 heures et 4 minutes, à 14:00 UTC
Prévision valable du 28 à 15 UTC au 28 à 24 UTC
Vent 5 kt de sud-est
Visibilité 10 km ou plus
pas de nuages en-dessous de 1500 mètres et pas de cumulonimbus.
Probabilité 30% :
Temporairement
du 28 à 20 UTC au 28 à 24 UTC
Vent 25 kt de direction variable avec des rafales jusqu'à 35 kt
Visibilité: 1500 m
Nuages fragmentés à une hauteur de 5000 ft, Cumulonimbus.
orage, pluie

TAF: LFAT 281400Z 2815/2824 13005KT CAVOK PROB30 TEMPO 2820/2824 VRB25G35KT 1500 TSRA BKN050CB

Observations et prévisions météorologiques de plus de 4000 aéroports (messages METAR et TAF).

Les stations disponibles sont représentées par des disques jaunes et rouges sur la carte.

Passer la souris dessus pour voir le nom de la station.

Cliquer dessus pour voir les observations et prévisions météorologiques.

Pour changer de carte: cliquez sur les boutons verts avec une croix noire pour zoomer, sur le bouton vert avec un tiret pour effectuer un zoom arrière, ou sur les flèches vertes pour les cartes adjacentes.


METAR-TAF: